sensor_id;sensor_type;location;lat;lon;timestamp;P1;durP1;ratioP1;P2;durP2;ratioP2
54985;SDS011;40885;53.070;6.228;2022-07-23T00:00:48;4.65;;;2.40;;
54985;SDS011;40885;53.070;6.228;2022-07-23T00:03:13;7.28;;;3.03;;
54985;SDS011;40885;53.070;6.228;2022-07-23T00:05:39;3.50;;;2.10;;
54985;SDS011;40885;53.070;6.228;2022-07-23T00:08:05;5.60;;;2.28;;
54985;SDS011;40885;53.070;6.228;2022-07-23T00:10:32;5.57;;;2.20;;
54985;SDS011;40885;53.070;6.228;2022-07-23T00:12:59;3.97;;;1.50;;
54985;SDS011;40885;53.070;6.228;2022-07-23T00:15:25;6.22;;;2.83;;
54985;SDS011;40885;53.070;6.228;2022-07-23T00:17:50;6.53;;;3.53;;
54985;SDS011;40885;53.070;6.228;2022-07-23T00:20:16;7.35;;;3.03;;
54985;SDS011;40885;53.070;6.228;2022-07-23T00:22:46;5.22;;;2.92;;
54985;SDS011;40885;53.070;6.228;2022-07-23T00:25:16;8.65;;;3.15;;
54985;SDS011;40885;53.070;6.228;2022-07-23T00:27:42;6.32;;;2.45;;
54985;SDS011;40885;53.070;6.228;2022-07-23T00:30:08;7.97;;;2.42;;
54985;SDS011;40885;53.070;6.228;2022-07-23T00:32:45;4.97;;;2.28;;
54985;SDS011;40885;53.070;6.228;2022-07-23T00:35:15;9.57;;;3.17;;
54985;SDS011;40885;53.070;6.228;2022-07-23T00:37:43;4.38;;;2.50;;
54985;SDS011;40885;53.070;6.228;2022-07-23T00:40:10;4.93;;;2.55;;
54985;SDS011;40885;53.070;6.228;2022-07-23T00:42:36;9.20;;;2.22;;
54985;SDS011;40885;53.070;6.228;2022-07-23T00:45:02;5.53;;;2.15;;
54985;SDS011;40885;53.070;6.228;2022-07-23T00:47:28;4.43;;;2.60;;
54985;SDS011;40885;53.070;6.228;2022-07-23T00:49:54;3.35;;;2.42;;
54985;SDS011;40885;53.070;6.228;2022-07-23T00:52:20;8.95;;;2.72;;
54985;SDS011;40885;53.070;6.228;2022-07-23T00:54:46;4.05;;;2.90;;
54985;SDS011;40885;53.070;6.228;2022-07-23T00:57:12;5.78;;;2.70;;
54985;SDS011;40885;53.070;6.228;2022-07-23T00:59:38;4.88;;;2.97;;
54985;SDS011;40885;53.070;6.228;2022-07-23T01:02:05;4.32;;;3.88;;
54985;SDS011;40885;53.070;6.228;2022-07-23T01:04:30;6.35;;;3.80;;
54985;SDS011;40885;53.070;6.228;2022-07-23T01:06:56;5.38;;;3.22;;
54985;SDS011;40885;53.070;6.228;2022-07-23T01:09:22;5.75;;;3.58;;
54985;SDS011;40885;53.070;6.228;2022-07-23T01:11:48;4.35;;;3.70;;
54985;SDS011;40885;53.070;6.228;2022-07-23T01:14:17;6.95;;;4.55;;
54985;SDS011;40885;53.070;6.228;2022-07-23T01:16:44;6.60;;;4.75;;
54985;SDS011;40885;53.070;6.228;2022-07-23T01:19:11;3.10;;;2.80;;
54985;SDS011;40885;53.070;6.228;2022-07-23T01:21:39;6.20;;;3.25;;
54985;SDS011;40885;53.070;6.228;2022-07-23T01:24:07;5.15;;;3.25;;
54985;SDS011;40885;53.070;6.228;2022-07-23T01:26:35;3.72;;;3.00;;
54985;SDS011;40885;53.070;6.228;2022-07-23T01:29:01;5.18;;;3.28;;
54985;SDS011;40885;53.070;6.228;2022-07-23T01:31:27;4.05;;;3.70;;
54985;SDS011;40885;53.070;6.228;2022-07-23T01:33:53;4.60;;;3.67;;
54985;SDS011;40885;53.070;6.228;2022-07-23T01:36:19;5.53;;;3.42;;
54985;SDS011;40885;53.070;6.228;2022-07-23T01:38:45;6.38;;;3.65;;
54985;SDS011;40885;53.070;6.228;2022-07-23T01:41:10;5.53;;;3.85;;
54985;SDS011;40885;53.070;6.228;2022-07-23T01:43:36;8.95;;;3.85;;
54985;SDS011;40885;53.070;6.228;2022-07-23T01:46:02;5.03;;;3.67;;
54985;SDS011;40885;53.070;6.228;2022-07-23T01:48:27;5.82;;;4.30;;
54985;SDS011;40885;53.070;6.228;2022-07-23T01:50:53;6.53;;;4.50;;
54985;SDS011;40885;53.070;6.228;2022-07-23T01:53:19;3.25;;;2.95;;
54985;SDS011;40885;53.070;6.228;2022-07-23T01:55:45;3.83;;;3.47;;
54985;SDS011;40885;53.070;6.228;2022-07-23T01:58:11;5.70;;;3.65;;
54985;SDS011;40885;53.070;6.228;2022-07-23T02:00:36;6.95;;;4.15;;
54985;SDS011;40885;53.070;6.228;2022-07-23T02:03:03;4.45;;;3.30;;
54985;SDS011;40885;53.070;6.228;2022-07-23T02:05:28;5.97;;;3.50;;
54985;SDS011;40885;53.070;6.228;2022-07-23T02:07:55;7.32;;;3.70;;
54985;SDS011;40885;53.070;6.228;2022-07-23T02:10:21;5.60;;;4.30;;
54985;SDS011;40885;53.070;6.228;2022-07-23T02:12:47;4.40;;;3.60;;
54985;SDS011;40885;53.070;6.228;2022-07-23T02:15:13;3.42;;;3.13;;
54985;SDS011;40885;53.070;6.228;2022-07-23T02:17:38;5.60;;;3.90;;
54985;SDS011;40885;53.070;6.228;2022-07-23T02:20:05;6.80;;;3.58;;
54985;SDS011;40885;53.070;6.228;2022-07-23T02:22:32;5.63;;;4.00;;
54985;SDS011;40885;53.070;6.228;2022-07-23T02:24:58;4.43;;;3.20;;
54985;SDS011;40885;53.070;6.228;2022-07-23T02:27:24;4.38;;;3.97;;
54985;SDS011;40885;53.070;6.228;2022-07-23T02:29:49;50.45;;;3.67;;
54985;SDS011;40885;53.070;6.228;2022-07-23T02:32:15;12.35;;;3.08;;
54985;SDS011;40885;53.070;6.228;2022-07-23T02:34:41;5.40;;;2.90;;
54985;SDS011;40885;53.070;6.228;2022-07-23T02:37:07;4.35;;;2.55;;
54985;SDS011;40885;53.070;6.228;2022-07-23T02:39:34;3.40;;;3.10;;
54985;SDS011;40885;53.070;6.228;2022-07-23T02:42:00;3.15;;;2.33;;
54985;SDS011;40885;53.070;6.228;2022-07-23T02:44:27;4.35;;;3.13;;
54985;SDS011;40885;53.070;6.228;2022-07-23T02:46:52;3.72;;;2.10;;
54985;SDS011;40885;53.070;6.228;2022-07-23T02:49:18;3.03;;;2.25;;
54985;SDS011;40885;53.070;6.228;2022-07-23T02:51:44;2.35;;;2.15;;
54985;SDS011;40885;53.070;6.228;2022-07-23T02:54:10;2.70;;;2.20;;
54985;SDS011;40885;53.070;6.228;2022-07-23T02:56:35;4.05;;;1.63;;
54985;SDS011;40885;53.070;6.228;2022-07-23T02:59:01;1.65;;;1.55;;
54985;SDS011;40885;53.070;6.228;2022-07-23T03:01:27;1.77;;;1.67;;
54985;SDS011;40885;53.070;6.228;2022-07-23T03:03:53;2.00;;;1.90;;
54985;SDS011;40885;53.070;6.228;2022-07-23T03:06:18;3.70;;;3.38;;
54985;SDS011;40885;53.070;6.228;2022-07-23T03:08:44;3.08;;;2.75;;
54985;SDS011;40885;53.070;6.228;2022-07-23T03:11:10;3.47;;;3.03;;
54985;SDS011;40885;53.070;6.228;2022-07-23T03:13:38;4.68;;;3.60;;
54985;SDS011;40885;53.070;6.228;2022-07-23T03:16:05;5.97;;;3.35;;
54985;SDS011;40885;53.070;6.228;2022-07-23T03:18:31;2.35;;;1.80;;
54985;SDS011;40885;53.070;6.228;2022-07-23T03:20:58;5.05;;;4.43;;
54985;SDS011;40885;53.070;6.228;2022-07-23T03:23:24;3.13;;;2.80;;
54985;SDS011;40885;53.070;6.228;2022-07-23T03:25:50;3.72;;;3.30;;
54985;SDS011;40885;53.070;6.228;2022-07-23T03:28:16;7.95;;;4.25;;
54985;SDS011;40885;53.070;6.228;2022-07-23T03:30:42;6.82;;;4.10;;
54985;SDS011;40885;53.070;6.228;2022-07-23T03:33:11;7.03;;;4.22;;
54985;SDS011;40885;53.070;6.228;2022-07-23T03:35:38;6.40;;;3.83;;
54985;SDS011;40885;53.070;6.228;2022-07-23T03:38:03;7.10;;;3.42;;
54985;SDS011;40885;53.070;6.228;2022-07-23T03:40:29;5.05;;;4.05;;
54985;SDS011;40885;53.070;6.228;2022-07-23T03:42:55;6.18;;;3.60;;
54985;SDS011;40885;53.070;6.228;2022-07-23T03:45:21;6.00;;;4.05;;
54985;SDS011;40885;53.070;6.228;2022-07-23T03:47:47;9.38;;;5.05;;
54985;SDS011;40885;53.070;6.228;2022-07-23T03:50:12;6.88;;;4.88;;
54985;SDS011;40885;53.070;6.228;2022-07-23T03:52:38;6.72;;;4.05;;
54985;SDS011;40885;53.070;6.228;2022-07-23T03:55:04;5.63;;;3.13;;
54985;SDS011;40885;53.070;6.228;2022-07-23T03:57:30;5.25;;;3.70;;
54985;SDS011;40885;53.070;6.228;2022-07-23T03:59:56;6.30;;;4.40;;
54985;SDS011;40885;53.070;6.228;2022-07-23T04:02:22;10.48;;;4.72;;
54985;SDS011;40885;53.070;6.228;2022-07-23T04:04:47;8.27;;;5.05;;
54985;SDS011;40885;53.070;6.228;2022-07-23T04:07:14;9.30;;;4.95;;
54985;SDS011;40885;53.070;6.228;2022-07-23T04:09:39;6.70;;;4.63;;
54985;SDS011;40885;53.070;6.228;2022-07-23T04:12:06;9.60;;;5.13;;
54985;SDS011;40885;53.070;6.228;2022-07-23T04:14:32;7.15;;;4.30;;
54985;SDS011;40885;53.070;6.228;2022-07-23T04:16:58;5.35;;;4.40;;
54985;SDS011;40885;53.070;6.228;2022-07-23T04:19:24;4.28;;;3.72;;
54985;SDS011;40885;53.070;6.228;2022-07-23T04:21:50;8.10;;;4.47;;
54985;SDS011;40885;53.070;6.228;2022-07-23T04:24:16;5.18;;;4.50;;
54985;SDS011;40885;53.070;6.228;2022-07-23T04:26:43;7.10;;;4.57;;
54985;SDS011;40885;53.070;6.228;2022-07-23T04:29:09;7.00;;;4.30;;
54985;SDS011;40885;53.070;6.228;2022-07-23T04:31:35;5.10;;;4.03;;
54985;SDS011;40885;53.070;6.228;2022-07-23T04:34:01;4.30;;;3.47;;
54985;SDS011;40885;53.070;6.228;2022-07-23T04:36:26;5.53;;;4.00;;
54985;SDS011;40885;53.070;6.228;2022-07-23T04:38:52;6.90;;;3.95;;
54985;SDS011;40885;53.070;6.228;2022-07-23T04:41:18;9.10;;;3.42;;
54985;SDS011;40885;53.070;6.228;2022-07-23T04:43:44;5.45;;;3.95;;
54985;SDS011;40885;53.070;6.228;2022-07-23T04:46:10;5.70;;;3.92;;
54985;SDS011;40885;53.070;6.228;2022-07-23T04:48:36;7.93;;;4.40;;
54985;SDS011;40885;53.070;6.228;2022-07-23T04:51:02;8.10;;;4.00;;
54985;SDS011;40885;53.070;6.228;2022-07-23T04:53:28;6.18;;;4.25;;
54985;SDS011;40885;53.070;6.228;2022-07-23T04:55:54;9.10;;;5.40;;
54985;SDS011;40885;53.070;6.228;2022-07-23T04:58:20;7.88;;;4.72;;
54985;SDS011;40885;53.070;6.228;2022-07-23T05:00:47;7.68;;;4.93;;
54985;SDS011;40885;53.070;6.228;2022-07-23T05:03:12;7.45;;;5.13;;
54985;SDS011;40885;53.070;6.228;2022-07-23T05:05:38;6.05;;;4.80;;
54985;SDS011;40885;53.070;6.228;2022-07-23T05:08:04;12.93;;;4.70;;
54985;SDS011;40885;53.070;6.228;2022-07-23T05:10:30;8.68;;;5.18;;
54985;SDS011;40885;53.070;6.228;2022-07-23T05:12:56;6.38;;;4.30;;
54985;SDS011;40885;53.070;6.228;2022-07-23T05:15:23;9.10;;;4.70;;
54985;SDS011;40885;53.070;6.228;2022-07-23T05:17:49;6.45;;;4.78;;
54985;SDS011;40885;53.070;6.228;2022-07-23T05:20:14;9.75;;;5.13;;
54985;SDS011;40885;53.070;6.228;2022-07-23T05:22:40;5.72;;;4.78;;
54985;SDS011;40885;53.070;6.228;2022-07-23T05:25:06;10.25;;;4.47;;
54985;SDS011;40885;53.070;6.228;2022-07-23T05:27:33;6.28;;;4.00;;
54985;SDS011;40885;53.070;6.228;2022-07-23T05:29:59;8.15;;;4.10;;
54985;SDS011;40885;53.070;6.228;2022-07-23T05:32:24;6.97;;;3.90;;
54985;SDS011;40885;53.070;6.228;2022-07-23T05:34:50;6.57;;;3.80;;
54985;SDS011;40885;53.070;6.228;2022-07-23T05:37:16;7.85;;;3.70;;
54985;SDS011;40885;53.070;6.228;2022-07-23T05:39:42;13.23;;;3.22;;
54985;SDS011;40885;53.070;6.228;2022-07-23T05:42:08;6.90;;;3.33;;
54985;SDS011;40885;53.070;6.228;2022-07-23T05:44:34;8.68;;;3.22;;
54985;SDS011;40885;53.070;6.228;2022-07-23T05:47:00;11.35;;;3.97;;
54985;SDS011;40885;53.070;6.228;2022-07-23T05:49:26;7.07;;;3.40;;
54985;SDS011;40885;53.070;6.228;2022-07-23T05:51:52;7.82;;;2.83;;
54985;SDS011;40885;53.070;6.228;2022-07-23T05:54:17;7.28;;;3.20;;
54985;SDS011;40885;53.070;6.228;2022-07-23T05:56:43;9.52;;;2.80;;
54985;SDS011;40885;53.070;6.228;2022-07-23T05:59:09;7.00;;;2.92;;
54985;SDS011;40885;53.070;6.228;2022-07-23T06:01:37;8.20;;;2.65;;
54985;SDS011;40885;53.070;6.228;2022-07-23T06:04:02;4.80;;;2.70;;
54985;SDS011;40885;53.070;6.228;2022-07-23T06:06:28;7.85;;;2.53;;
54985;SDS011;40885;53.070;6.228;2022-07-23T06:08:54;6.45;;;2.80;;
54985;SDS011;40885;53.070;6.228;2022-07-23T06:11:20;3.92;;;2.42;;
54985;SDS011;40885;53.070;6.228;2022-07-23T06:13:45;8.68;;;2.63;;
54985;SDS011;40885;53.070;6.228;2022-07-23T06:16:11;5.18;;;2.28;;
54985;SDS011;40885;53.070;6.228;2022-07-23T06:18:37;6.32;;;2.60;;
54985;SDS011;40885;53.070;6.228;2022-07-23T06:21:02;4.93;;;2.60;;
54985;SDS011;40885;53.070;6.228;2022-07-23T06:23:28;7.53;;;2.40;;
54985;SDS011;40885;53.070;6.228;2022-07-23T06:25:54;6.60;;;2.67;;
54985;SDS011;40885;53.070;6.228;2022-07-23T06:28:20;4.95;;;2.20;;
54985;SDS011;40885;53.070;6.228;2022-07-23T06:30:46;6.75;;;1.92;;
54985;SDS011;40885;53.070;6.228;2022-07-23T06:33:11;5.22;;;1.73;;
54985;SDS011;40885;53.070;6.228;2022-07-23T06:35:37;3.13;;;1.20;;
54985;SDS011;40885;53.070;6.228;2022-07-23T06:38:03;2.50;;;1.55;;
54985;SDS011;40885;53.070;6.228;2022-07-23T06:40:28;3.40;;;1.20;;
54985;SDS011;40885;53.070;6.228;2022-07-23T06:42:54;2.92;;;0.95;;
54985;SDS011;40885;53.070;6.228;2022-07-23T06:45:20;2.00;;;1.02;;
54985;SDS011;40885;53.070;6.228;2022-07-23T06:47:46;2.85;;;0.70;;
54985;SDS011;40885;53.070;6.228;2022-07-23T06:50:12;2.47;;;0.60;;
54985;SDS011;40885;53.070;6.228;2022-07-23T06:52:37;3.45;;;0.70;;
54985;SDS011;40885;53.070;6.228;2022-07-23T06:55:03;2.60;;;0.65;;
54985;SDS011;40885;53.070;6.228;2022-07-23T06:57:29;2.03;;;0.60;;
54985;SDS011;40885;53.070;6.228;2022-07-23T06:59:55;2.28;;;0.52;;
54985;SDS011;40885;53.070;6.228;2022-07-23T07:02:21;2.53;;;0.73;;
54985;SDS011;40885;53.070;6.228;2022-07-23T07:04:46;1.75;;;0.47;;
54985;SDS011;40885;53.070;6.228;2022-07-23T07:07:12;2.80;;;0.40;;
54985;SDS011;40885;53.070;6.228;2022-07-23T07:09:38;3.03;;;0.60;;
54985;SDS011;40885;53.070;6.228;2022-07-23T07:12:04;3.08;;;0.40;;
54985;SDS011;40885;53.070;6.228;2022-07-23T07:14:30;3.10;;;0.50;;
54985;SDS011;40885;53.070;6.228;2022-07-23T07:16:56;1.60;;;0.50;;
54985;SDS011;40885;53.070;6.228;2022-07-23T07:19:21;1.20;;;0.40;;
54985;SDS011;40885;53.070;6.228;2022-07-23T07:21:47;4.00;;;0.50;;
54985;SDS011;40885;53.070;6.228;2022-07-23T07:24:13;6.93;;;0.60;;
54985;SDS011;40885;53.070;6.228;2022-07-23T07:26:38;1.02;;;0.40;;
54985;SDS011;40885;53.070;6.228;2022-07-23T07:29:04;2.03;;;0.32;;
54985;SDS011;40885;53.070;6.228;2022-07-23T07:31:31;1.42;;;0.50;;
54985;SDS011;40885;53.070;6.228;2022-07-23T07:33:57;3.92;;;0.73;;
54985;SDS011;40885;53.070;6.228;2022-07-23T07:36:23;1.17;;;0.52;;
54985;SDS011;40885;53.070;6.228;2022-07-23T07:38:49;8.68;;;0.43;;
54985;SDS011;40885;53.070;6.228;2022-07-23T07:41:14;1.13;;;0.40;;
54985;SDS011;40885;53.070;6.228;2022-07-23T07:43:41;0.70;;;0.30;;
54985;SDS011;40885;53.070;6.228;2022-07-23T07:46:06;4.03;;;0.55;;
54985;SDS011;40885;53.070;6.228;2022-07-23T07:48:35;3.83;;;0.50;;
54985;SDS011;40885;53.070;6.228;2022-07-23T07:51:02;2.38;;;0.50;;
54985;SDS011;40885;53.070;6.228;2022-07-23T07:53:29;0.65;;;0.40;;
54985;SDS011;40885;53.070;6.228;2022-07-23T07:55:54;0.50;;;0.25;;
54985;SDS011;40885;53.070;6.228;2022-07-23T07:58:20;2.47;;;0.50;;
54985;SDS011;40885;53.070;6.228;2022-07-23T08:00:46;2.05;;;0.73;;
54985;SDS011;40885;53.070;6.228;2022-07-23T08:03:12;0.47;;;0.40;;
54985;SDS011;40885;53.070;6.228;2022-07-23T08:05:37;2.20;;;0.30;;
54985;SDS011;40885;53.070;6.228;2022-07-23T08:08:03;2.00;;;0.40;;
54985;SDS011;40885;53.070;6.228;2022-07-23T08:10:29;1.67;;;0.30;;
54985;SDS011;40885;53.070;6.228;2022-07-23T08:12:56;2.30;;;0.43;;
54985;SDS011;40885;53.070;6.228;2022-07-23T08:15:24;2.30;;;0.30;;
54985;SDS011;40885;53.070;6.228;2022-07-23T08:17:51;3.08;;;0.43;;
54985;SDS011;40885;53.070;6.228;2022-07-23T08:20:19;4.38;;;0.50;;
54985;SDS011;40885;53.070;6.228;2022-07-23T08:25:21;1.35;;;0.45;;
54985;SDS011;40885;53.070;6.228;2022-07-23T08:27:49;2.03;;;0.43;;
54985;SDS011;40885;53.070;6.228;2022-07-23T08:30:15;2.10;;;0.60;;
54985;SDS011;40885;53.070;6.228;2022-07-23T08:32:49;2.40;;;0.40;;
54985;SDS011;40885;53.070;6.228;2022-07-23T08:35:17;1.60;;;0.45;;
54985;SDS011;40885;53.070;6.228;2022-07-23T08:37:47;1.33;;;0.40;;
54985;SDS011;40885;53.070;6.228;2022-07-23T08:40:12;1.08;;;0.50;;
54985;SDS011;40885;53.070;6.228;2022-07-23T08:42:38;0.55;;;0.28;;
54985;SDS011;40885;53.070;6.228;2022-07-23T08:45:04;0.68;;;0.40;;
54985;SDS011;40885;53.070;6.228;2022-07-23T08:47:32;1.00;;;0.30;;
54985;SDS011;40885;53.070;6.228;2022-07-23T08:49:59;4.30;;;0.43;;
54985;SDS011;40885;53.070;6.228;2022-07-23T08:52:26;7.25;;;1.35;;
54985;SDS011;40885;53.070;6.228;2022-07-23T08:54:52;1.35;;;0.55;;
54985;SDS011;40885;53.070;6.228;2022-07-23T08:57:19;1.88;;;0.40;;
54985;SDS011;40885;53.070;6.228;2022-07-23T08:59:45;2.30;;;0.50;;
54985;SDS011;40885;53.070;6.228;2022-07-23T09:02:11;3.25;;;0.40;;
54985;SDS011;40885;53.070;6.228;2022-07-23T09:04:37;2.63;;;0.40;;
54985;SDS011;40885;53.070;6.228;2022-07-23T09:07:03;2.58;;;0.40;;
54985;SDS011;40885;53.070;6.228;2022-07-23T09:09:29;3.05;;;0.47;;
54985;SDS011;40885;53.070;6.228;2022-07-23T09:12:06;1.38;;;0.30;;
54985;SDS011;40885;53.070;6.228;2022-07-23T09:14:41;1.40;;;0.50;;
54985;SDS011;40885;53.070;6.228;2022-07-23T09:17:15;2.23;;;0.40;;
54985;SDS011;40885;53.070;6.228;2022-07-23T09:19:42;2.13;;;0.52;;
54985;SDS011;40885;53.070;6.228;2022-07-23T09:22:19;3.80;;;0.50;;
54985;SDS011;40885;53.070;6.228;2022-07-23T09:25:05;1.33;;;0.65;;
54985;SDS011;40885;53.070;6.228;2022-07-23T09:27:46;0.75;;;0.35;;
54985;SDS011;40885;53.070;6.228;2022-07-23T09:30:14;3.53;;;0.60;;
54985;SDS011;40885;53.070;6.228;2022-07-23T09:32:40;2.58;;;0.60;;
54985;SDS011;40885;53.070;6.228;2022-07-23T09:35:06;1.70;;;0.40;;
54985;SDS011;40885;53.070;6.228;2022-07-23T09:37:32;2.00;;;0.60;;
54985;SDS011;40885;53.070;6.228;2022-07-23T09:40:08;1.23;;;0.50;;
54985;SDS011;40885;53.070;6.228;2022-07-23T09:42:37;0.73;;;0.47;;
54985;SDS011;40885;53.070;6.228;2022-07-23T09:45:03;1.70;;;0.50;;
54985;SDS011;40885;53.070;6.228;2022-07-23T09:47:30;2.15;;;0.90;;
54985;SDS011;40885;53.070;6.228;2022-07-23T09:52:35;0.55;;;0.40;;
54985;SDS011;40885;53.070;6.228;2022-07-23T09:55:07;1.70;;;0.50;;
54985;SDS011;40885;53.070;6.228;2022-07-23T09:57:33;3.00;;;0.40;;
54985;SDS011;40885;53.070;6.228;2022-07-23T10:00:00;2.95;;;0.63;;
54985;SDS011;40885;53.070;6.228;2022-07-23T10:02:29;2.63;;;0.63;;
54985;SDS011;40885;53.070;6.228;2022-07-23T10:04:57;3.35;;;0.50;;
54985;SDS011;40885;53.070;6.228;2022-07-23T10:07:25;2.22;;;0.88;;
54985;SDS011;40885;53.070;6.228;2022-07-23T10:09:52;2.78;;;1.05;;
54985;SDS011;40885;53.070;6.228;2022-07-23T10:12:19;2.95;;;0.75;;
54985;SDS011;40885;53.070;6.228;2022-07-23T10:14:48;1.00;;;0.50;;
54985;SDS011;40885;53.070;6.228;2022-07-23T10:17:14;4.47;;;0.60;;
54985;SDS011;40885;53.070;6.228;2022-07-23T10:19:41;3.63;;;1.00;;
54985;SDS011;40885;53.070;6.228;2022-07-23T10:30:09;2.10;;;0.68;;
54985;SDS011;40885;53.070;6.228;2022-07-23T10:38:24;6.30;;;1.30;;
54985;SDS011;40885;53.070;6.228;2022-07-23T10:40:55;5.88;;;0.88;;
54985;SDS011;40885;53.070;6.228;2022-07-23T10:43:23;5.18;;;1.23;;
54985;SDS011;40885;53.070;6.228;2022-07-23T10:45:50;1.63;;;0.57;;
54985;SDS011;40885;53.070;6.228;2022-07-23T10:48:17;2.67;;;1.05;;
54985;SDS011;40885;53.070;6.228;2022-07-23T10:56:17;22.58;;;2.20;;
54985;SDS011;40885;53.070;6.228;2022-07-23T10:59:03;2.92;;;0.77;;
54985;SDS011;40885;53.070;6.228;2022-07-23T11:01:36;3.05;;;0.88;;
54985;SDS011;40885;53.070;6.228;2022-07-23T11:04:04;2.55;;;0.75;;
54985;SDS011;40885;53.070;6.228;2022-07-23T11:17:27;1.55;;;0.77;;
54985;SDS011;40885;53.070;6.228;2022-07-23T11:22:37;2.95;;;0.93;;
54985;SDS011;40885;53.070;6.228;2022-07-23T11:25:05;3.10;;;1.00;;
54985;SDS011;40885;53.070;6.228;2022-07-23T11:27:40;3.78;;;0.98;;
54985;SDS011;40885;53.070;6.228;2022-07-23T11:30:11;3.70;;;1.00;;
54985;SDS011;40885;53.070;6.228;2022-07-23T11:35:37;2.65;;;1.00;;
54985;SDS011;40885;53.070;6.228;2022-07-23T11:38:07;1.50;;;0.90;;
54985;SDS011;40885;53.070;6.228;2022-07-23T11:40:50;6.53;;;1.20;;
54985;SDS011;40885;53.070;6.228;2022-07-23T11:43:19;2.50;;;1.02;;
54985;SDS011;40885;53.070;6.228;2022-07-23T11:45:47;1.52;;;0.63;;
54985;SDS011;40885;53.070;6.228;2022-07-23T11:48:19;2.05;;;0.75;;
54985;SDS011;40885;53.070;6.228;2022-07-23T11:50:47;2.55;;;1.38;;
54985;SDS011;40885;53.070;6.228;2022-07-23T11:53:20;3.60;;;1.52;;
54985;SDS011;40885;53.070;6.228;2022-07-23T11:55:50;2.95;;;1.20;;
54985;SDS011;40885;53.070;6.228;2022-07-23T11:58:16;1.85;;;0.90;;
54985;SDS011;40885;53.070;6.228;2022-07-23T12:00:42;2.55;;;0.80;;
54985;SDS011;40885;53.070;6.228;2022-07-23T12:03:08;2.72;;;1.02;;
54985;SDS011;40885;53.070;6.228;2022-07-23T12:05:35;4.53;;;1.13;;
54985;SDS011;40885;53.070;6.228;2022-07-23T12:08:03;3.63;;;1.00;;
54985;SDS011;40885;53.070;6.228;2022-07-23T12:10:34;2.00;;;0.90;;
54985;SDS011;40885;53.070;6.228;2022-07-23T12:13:06;3.72;;;1.15;;
54985;SDS011;40885;53.070;6.228;2022-07-23T12:15:39;4.30;;;1.55;;
54985;SDS011;40885;53.070;6.228;2022-07-23T12:18:07;2.10;;;1.20;;
54985;SDS011;40885;53.070;6.228;2022-07-23T12:20:44;3.90;;;1.00;;
54985;SDS011;40885;53.070;6.228;2022-07-23T12:23:13;3.30;;;1.02;;
54985;SDS011;40885;53.070;6.228;2022-07-23T12:25:40;3.67;;;1.10;;
54985;SDS011;40885;53.070;6.228;2022-07-23T12:28:10;1.50;;;0.80;;
54985;SDS011;40885;53.070;6.228;2022-07-23T12:30:41;2.97;;;1.00;;
54985;SDS011;40885;53.070;6.228;2022-07-23T12:36:16;1.98;;;0.90;;
54985;SDS011;40885;53.070;6.228;2022-07-23T12:38:50;3.45;;;0.82;;
54985;SDS011;40885;53.070;6.228;2022-07-23T12:43:43;1.15;;;0.80;;
54985;SDS011;40885;53.070;6.228;2022-07-23T12:46:11;2.10;;;1.10;;
54985;SDS011;40885;53.070;6.228;2022-07-23T12:51:18;4.37;;;1.23;;
54985;SDS011;40885;53.070;6.228;2022-07-23T12:53:46;2.05;;;1.00;;
54985;SDS011;40885;53.070;6.228;2022-07-23T12:56:15;3.30;;;1.38;;
54985;SDS011;40885;53.070;6.228;2022-07-23T12:58:47;1.35;;;1.00;;
54985;SDS011;40885;53.070;6.228;2022-07-23T13:04:24;2.47;;;1.45;;
54985;SDS011;40885;53.070;6.228;2022-07-23T13:06:45;4.88;;;1.00;;
54985;SDS011;40885;53.070;6.228;2022-07-23T13:09:16;3.28;;;0.90;;
54985;SDS011;40885;53.070;6.228;2022-07-23T13:11:44;4.07;;;1.08;;
54985;SDS011;40885;53.070;6.228;2022-07-23T13:14:11;2.83;;;1.25;;
54985;SDS011;40885;53.070;6.228;2022-07-23T13:16:38;4.05;;;0.75;;
54985;SDS011;40885;53.070;6.228;2022-07-23T13:19:05;3.45;;;1.33;;
54985;SDS011;40885;53.070;6.228;2022-07-23T13:21:31;1.85;;;1.20;;
54985;SDS011;40885;53.070;6.228;2022-07-23T13:23:58;2.20;;;1.20;;
54985;SDS011;40885;53.070;6.228;2022-07-23T13:26:24;2.53;;;1.05;;
54985;SDS011;40885;53.070;6.228;2022-07-23T13:28:50;2.00;;;1.00;;
54985;SDS011;40885;53.070;6.228;2022-07-23T13:31:16;1.15;;;1.05;;
54985;SDS011;40885;53.070;6.228;2022-07-23T13:33:42;1.25;;;1.13;;
54985;SDS011;40885;53.070;6.228;2022-07-23T13:36:08;3.33;;;1.60;;
54985;SDS011;40885;53.070;6.228;2022-07-23T13:38:34;3.05;;;0.90;;
54985;SDS011;40885;53.070;6.228;2022-07-23T13:41:00;2.78;;;1.05;;
54985;SDS011;40885;53.070;6.228;2022-07-23T13:43:26;4.90;;;1.10;;
54985;SDS011;40885;53.070;6.228;2022-07-23T13:45:52;2.97;;;1.63;;
54985;SDS011;40885;53.070;6.228;2022-07-23T13:48:18;3.60;;;1.08;;
54985;SDS011;40885;53.070;6.228;2022-07-23T13:50:45;3.90;;;1.20;;
54985;SDS011;40885;53.070;6.228;2022-07-23T13:53:13;1.88;;;1.10;;
54985;SDS011;40885;53.070;6.228;2022-07-23T13:55:43;4.40;;;1.83;;
54985;SDS011;40885;53.070;6.228;2022-07-23T13:58:10;3.72;;;1.63;;
54985;SDS011;40885;53.070;6.228;2022-07-23T14:00:38;2.35;;;1.23;;
54985;SDS011;40885;53.070;6.228;2022-07-23T14:03:06;3.60;;;1.67;;
54985;SDS011;40885;53.070;6.228;2022-07-23T14:05:32;5.47;;;1.90;;
54985;SDS011;40885;53.070;6.228;2022-07-23T14:07:58;4.57;;;3.05;;
54985;SDS011;40885;53.070;6.228;2022-07-23T14:10:24;2.42;;;1.10;;
54985;SDS011;40885;53.070;6.228;2022-07-23T14:12:51;3.53;;;1.20;;
54985;SDS011;40885;53.070;6.228;2022-07-23T14:15:23;2.83;;;1.00;;
54985;SDS011;40885;53.070;6.228;2022-07-23T14:17:51;2.75;;;1.25;;
54985;SDS011;40885;53.070;6.228;2022-07-23T14:20:17;1.60;;;1.17;;
54985;SDS011;40885;53.070;6.228;2022-07-23T14:22:43;3.88;;;0.93;;
54985;SDS011;40885;53.070;6.228;2022-07-23T14:25:09;6.25;;;1.40;;
54985;SDS011;40885;53.070;6.228;2022-07-23T14:27:35;1.42;;;1.00;;
54985;SDS011;40885;53.070;6.228;2022-07-23T14:30:02;3.13;;;1.23;;
54985;SDS011;40885;53.070;6.228;2022-07-23T14:32:30;1.98;;;0.90;;
54985;SDS011;40885;53.070;6.228;2022-07-23T14:34:56;3.47;;;1.50;;
54985;SDS011;40885;53.070;6.228;2022-07-23T14:37:21;3.47;;;1.70;;
54985;SDS011;40885;53.070;6.228;2022-07-23T14:39:47;2.42;;;1.25;;
54985;SDS011;40885;53.070;6.228;2022-07-23T14:42:13;4.03;;;1.50;;
54985;SDS011;40885;53.070;6.228;2022-07-23T14:44:39;4.97;;;2.42;;
54985;SDS011;40885;53.070;6.228;2022-07-23T14:47:07;1.83;;;0.93;;
54985;SDS011;40885;53.070;6.228;2022-07-23T14:49:33;1.90;;;0.95;;
54985;SDS011;40885;53.070;6.228;2022-07-23T14:51:59;1.20;;;0.90;;
54985;SDS011;40885;53.070;6.228;2022-07-23T14:54:27;3.78;;;1.00;;
54985;SDS011;40885;53.070;6.228;2022-07-23T14:56:53;2.03;;;0.70;;
54985;SDS011;40885;53.070;6.228;2022-07-23T14:59:20;3.15;;;0.80;;
54985;SDS011;40885;53.070;6.228;2022-07-23T15:01:46;1.85;;;0.77;;
54985;SDS011;40885;53.070;6.228;2022-07-23T15:04:12;3.35;;;1.08;;
54985;SDS011;40885;53.070;6.228;2022-07-23T15:06:38;1.83;;;0.80;;
54985;SDS011;40885;53.070;6.228;2022-07-23T15:09:04;4.95;;;1.95;;
54985;SDS011;40885;53.070;6.228;2022-07-23T15:11:31;0.82;;;0.77;;
54985;SDS011;40885;53.070;6.228;2022-07-23T15:14:03;2.15;;;0.98;;
54985;SDS011;40885;53.070;6.228;2022-07-23T15:16:29;3.85;;;1.77;;
54985;SDS011;40885;53.070;6.228;2022-07-23T15:18:55;2.25;;;1.23;;
54985;SDS011;40885;53.070;6.228;2022-07-23T15:21:21;2.72;;;0.70;;
54985;SDS011;40885;53.070;6.228;2022-07-23T15:23:47;2.50;;;1.15;;
54985;SDS011;40885;53.070;6.228;2022-07-23T15:26:13;2.10;;;0.90;;
54985;SDS011;40885;53.070;6.228;2022-07-23T15:28:40;1.80;;;0.90;;
54985;SDS011;40885;53.070;6.228;2022-07-23T15:31:06;2.17;;;1.13;;
54985;SDS011;40885;53.070;6.228;2022-07-23T15:33:33;1.08;;;0.88;;
54985;SDS011;40885;53.070;6.228;2022-07-23T15:36:00;3.20;;;0.75;;
54985;SDS011;40885;53.070;6.228;2022-07-23T15:38:27;2.00;;;0.93;;